createdAt,value
2022-12-03T00:02:11.940Z,32.15
2022-12-03T00:04:52.237Z,32.66
2022-12-03T00:07:26.215Z,30.86
2022-12-03T00:20:56.910Z,31.43
2022-12-03T00:23:41.735Z,30.42
2022-12-03T00:26:15.125Z,34.75
2022-12-03T00:28:47.952Z,31.17
2022-12-03T00:31:21.452Z,32.10
2022-12-03T00:33:54.926Z,31.27
2022-12-03T00:36:30.157Z,31.79
2022-12-03T00:49:17.977Z,31.39
2022-12-03T00:51:59.953Z,31.98
2022-12-03T00:54:33.120Z,32.77
2022-12-03T00:56:59.810Z,31.69
2022-12-03T00:59:42.997Z,30.45
2022-12-03T01:02:16.200Z,30.61
2022-12-03T01:15:06.909Z,31.20
2022-12-03T01:17:46.924Z,30.56
2022-12-03T01:20:20.431Z,30.61
2022-12-03T01:22:53.968Z,31.15
2022-12-03T01:25:27.452Z,30.77
2022-12-03T01:43:44.903Z,29.57
2022-12-03T01:46:28.983Z,29.56
2022-12-03T01:49:02.313Z,29.00
2022-12-03T01:51:35.914Z,29.94
2022-12-03T01:54:17.772Z,28.94
2022-12-03T01:56:57.935Z,28.32
2022-12-03T02:10:11.934Z,26.58
2022-12-03T02:12:51.889Z,27.06
2022-12-03T02:15:33.001Z,25.15
2022-12-03T02:18:08.661Z,24.19
2022-12-03T03:12:04.940Z,24.18
2022-12-03T03:14:38.756Z,24.84
2022-12-03T03:17:13.152Z,24.08
2022-12-03T03:30:25.004Z,24.71
2022-12-03T03:32:58.481Z,24.31
2022-12-03T03:35:31.893Z,24.13
2022-12-03T03:38:07.175Z,23.30
2022-12-03T03:40:40.922Z,23.59
2022-12-03T03:57:17.932Z,23.54
2022-12-03T03:59:57.904Z,24.92
2022-12-03T04:02:33.464Z,24.16
2022-12-03T04:05:06.893Z,23.59
2022-12-03T04:07:40.183Z,22.45
2022-12-03T04:10:14.904Z,23.09
2022-12-03T04:23:30.898Z,23.67
2022-12-03T04:26:04.322Z,23.65
2022-12-03T04:28:37.900Z,22.77
2022-12-03T04:31:11.119Z,23.75
2022-12-03T04:33:37.818Z,23.33
2022-12-03T04:36:17.924Z,23.93
2022-12-03T04:49:29.902Z,25.34
2022-12-03T04:52:03.588Z,25.36
2022-12-03T04:54:44.968Z,25.22
2022-12-03T04:57:18.190Z,24.71
2022-12-03T04:59:51.902Z,25.94
2022-12-03T05:02:25.203Z,25.08
2022-12-03T05:15:16.868Z,27.22
2022-12-03T05:17:57.060Z,27.52
2022-12-03T05:20:30.096Z,26.87
2022-12-03T05:22:56.843Z,27.73
2022-12-03T05:25:36.893Z,27.89
2022-12-03T05:28:10.248Z,27.37
2022-12-03T05:30:45.957Z,27.73
2022-12-03T05:43:55.892Z,27.97
2022-12-03T05:46:31.435Z,29.82
2022-12-03T05:49:04.879Z,29.45
2022-12-03T05:51:38.124Z,29.45
2022-12-03T05:54:11.902Z,29.57
2022-12-03T05:56:45.117Z,29.89
2022-12-03T06:09:34.845Z,31.17
2022-12-03T06:12:14.858Z,29.98
2022-12-03T06:14:49.208Z,30.31
2022-12-03T06:17:22.876Z,31.65
2022-12-03T06:20:02.366Z,32.46
2022-12-03T06:22:43.929Z,30.42
2022-12-03T06:36:02.896Z,31.68
2022-12-03T06:38:36.073Z,31.48
2022-12-03T06:41:02.826Z,32.53
2022-12-03T06:43:42.914Z,32.04
2022-12-03T06:46:16.206Z,33.43
2022-12-03T06:48:49.884Z,31.34
2022-12-03T06:51:25.156Z,32.15
2022-12-03T07:04:12.834Z,35.19
2022-12-03T07:06:54.886Z,34.41
2022-12-03T07:09:28.148Z,34.22
2022-12-03T07:12:01.893Z,35.93
2022-12-03T07:14:35.144Z,33.78
2022-12-03T07:17:08.873Z,33.19
2022-12-03T07:30:22.845Z,33.72
2022-12-03T07:32:57.045Z,33.10
2022-12-03T07:35:29.870Z,34.68
2022-12-03T07:38:03.076Z,37.77
2022-12-03T07:40:29.808Z,38.35
2022-12-03T07:57:01.351Z,36.42
2022-12-03T07:59:35.119Z,36.53
2022-12-03T08:02:08.860Z,38.12
2022-12-03T08:04:42.053Z,38.14
2022-12-03T08:07:08.734Z,37.90
2022-12-03T08:09:49.934Z,36.92
2022-12-03T08:12:28.416Z,39.52
2022-12-03T08:22:28.893Z,38.60
2022-12-03T08:25:02.182Z,40.98
2022-12-03T08:27:38.577Z,40.14
2022-12-03T08:30:15.174Z,42.04
2022-12-03T08:32:49.853Z,40.66
2022-12-03T08:35:25.828Z,41.58
2022-12-03T08:51:10.879Z,43.35
2022-12-03T08:53:48.360Z,40.19
2022-12-03T08:56:30.868Z,42.19
2022-12-03T08:59:25.464Z,40.71
2022-12-03T09:02:05.869Z,38.44
2022-12-03T09:16:00.841Z,41.24
2022-12-03T09:18:36.055Z,38.38
2022-12-03T09:21:09.831Z,39.41
2022-12-03T09:23:43.190Z,37.28
2022-12-03T09:26:16.848Z,39.46
2022-12-03T09:28:50.296Z,38.28
2022-12-03T09:31:24.583Z,37.77
2022-12-03T09:44:40.824Z,38.37
2022-12-03T09:47:14.153Z,39.03
2022-12-03T09:49:47.883Z,38.86
2022-12-03T09:52:26.925Z,37.94
2022-12-03T09:55:27.903Z,38.42
2022-12-03T09:58:02.188Z,37.71
2022-12-03T10:10:54.856Z,40.32
2022-12-03T10:13:37.832Z,40.40
2022-12-03T10:16:16.331Z,39.69
2022-12-03T10:19:00.821Z,40.84
2022-12-03T10:21:37.756Z,40.89
2022-12-03T10:38:08.835Z,43.65
2022-12-03T10:40:42.092Z,43.64
2022-12-03T10:43:21.843Z,42.99
2022-12-03T10:46:15.513Z,44.51
2022-12-03T10:49:14.844Z,46.93
2022-12-03T10:51:48.684Z,45.47
2022-12-03T11:04:41.786Z,45.82
2022-12-03T11:07:24.883Z,48.28
2022-12-03T11:09:58.143Z,50.05
2022-12-03T11:12:34.827Z,49.01
2022-12-03T11:15:15.590Z,47.46
2022-12-03T11:17:56.842Z,49.69
2022-12-03T11:31:11.917Z,47.09
2022-12-03T11:33:45.041Z,46.90
2022-12-03T11:36:47.705Z,46.34
2022-12-03T11:40:19.664Z,45.91
2022-12-03T11:43:04.800Z,47.95
2022-12-03T11:56:35.826Z,49.79
2022-12-03T11:59:12.688Z,52.28
2022-12-03T12:01:52.823Z,49.82
2022-12-03T12:04:30.459Z,51.50
2022-12-03T12:07:10.836Z,51.71
2022-12-03T12:09:53.694Z,50.77
2022-12-03T12:12:54.651Z,54.55
2022-12-03T12:23:26.767Z,53.81
2022-12-03T12:26:11.800Z,53.75
2022-12-03T12:28:47.069Z,54.23
2022-12-03T12:31:19.905Z,53.74
2022-12-03T12:33:53.455Z,56.89
2022-12-03T12:36:27.502Z,54.37
2022-12-03T12:50:03.887Z,52.97
2022-12-03T12:52:47.744Z,53.24
2022-12-03T12:55:29.788Z,50.40
2022-12-03T12:58:11.833Z,52.34
2022-12-03T13:00:57.910Z,52.86
2022-12-03T13:03:41.385Z,53.46
2022-12-03T13:06:26.862Z,53.10
2022-12-03T13:16:46.859Z,56.25
2022-12-03T13:19:29.821Z,52.40
2022-12-03T13:22:15.603Z,55.06
2022-12-03T13:24:58.792Z,59.71
2022-12-03T13:27:31.998Z,54.07
2022-12-03T13:30:09.797Z,56.37
2022-12-03T13:32:44.009Z,54.41
2022-12-03T13:45:44.812Z,54.66
2022-12-03T13:48:30.811Z,55.14
2022-12-03T13:51:26.673Z,55.61
2022-12-03T13:54:09.332Z,54.56
2022-12-03T13:56:45.003Z,54.57
2022-12-03T14:10:19.761Z,55.52
2022-12-03T14:13:01.784Z,54.51
2022-12-03T14:15:35.000Z,54.71
2022-12-03T14:18:08.791Z,56.24
2022-12-03T14:20:42.057Z,55.42
2022-12-03T14:23:08.724Z,54.78
2022-12-03T14:25:48.802Z,54.08
2022-12-03T14:39:00.823Z,53.90
2022-12-03T14:41:34.572Z,53.59
2022-12-03T14:44:08.516Z,57.29
2022-12-03T14:46:41.972Z,57.02
2022-12-03T14:49:14.778Z,55.11
2022-12-03T14:51:48.016Z,52.78
2022-12-03T15:04:37.742Z,54.50
2022-12-03T15:07:17.811Z,54.24
2022-12-03T15:09:51.091Z,56.01
2022-12-03T15:12:24.777Z,52.61
2022-12-03T15:14:57.976Z,52.91
2022-12-03T15:17:31.211Z,55.30
2022-12-03T15:30:37.734Z,56.28
2022-12-03T15:33:17.853Z,54.78
2022-12-03T15:35:51.485Z,56.67
2022-12-03T15:38:24.749Z,52.97
2022-12-03T15:40:57.969Z,55.81
2022-12-03T15:43:24.645Z,54.44
2022-12-03T15:46:08.623Z,56.84
2022-12-03T15:59:18.770Z,58.97
2022-12-03T16:01:54.188Z,55.23
2022-12-03T16:04:27.769Z,56.06
2022-12-03T16:07:01.055Z,54.86
2022-12-03T16:09:34.772Z,55.23
2022-12-03T16:12:07.941Z,54.94
2022-12-03T16:24:57.805Z,54.32
2022-12-03T16:27:37.779Z,55.50
2022-12-03T16:30:12.553Z,58.32
2022-12-03T16:32:45.761Z,56.88
2022-12-03T16:35:19.115Z,58.48
2022-12-03T16:37:52.785Z,55.46
2022-12-03T16:51:05.461Z,59.73
2022-12-03T16:53:38.952Z,59.09
2022-12-03T16:56:12.745Z,63.45
2022-12-03T16:58:46.432Z,60.69
2022-12-03T17:01:19.825Z,59.95
2022-12-03T17:03:53.415Z,60.87
2022-12-03T17:06:28.760Z,59.52
2022-12-03T17:19:38.764Z,54.97
2022-12-03T17:22:14.156Z,57.55
2022-12-03T17:24:49.753Z,55.02
2022-12-03T17:27:23.096Z,56.08
2022-12-03T17:29:57.037Z,54.82
2022-12-03T17:32:30.043Z,54.93
2022-12-03T17:45:26.717Z,53.83
2022-12-03T17:48:06.749Z,52.41
2022-12-03T17:50:42.992Z,52.82
2022-12-03T17:53:16.453Z,53.09
2022-12-03T17:55:49.981Z,51.82
2022-12-03T18:12:04.742Z,49.35
2022-12-03T18:14:37.921Z,52.10
2022-12-03T18:17:04.602Z,55.02
2022-12-03T18:19:44.736Z,48.32
2022-12-03T18:22:18.373Z,50.07
2022-12-03T18:24:52.224Z,53.73
2022-12-03T18:27:27.909Z,52.64
2022-12-03T18:40:24.706Z,52.64
2022-12-03T18:43:06.768Z,53.42
2022-12-03T18:45:40.758Z,50.42
2022-12-03T18:48:18.734Z,48.58
2022-12-03T18:50:51.932Z,51.87
2022-12-03T19:07:03.730Z,52.13
2022-12-03T19:09:30.537Z,50.52
2022-12-03T19:12:14.739Z,52.07
2022-12-03T19:14:48.033Z,50.60
2022-12-03T19:17:21.810Z,49.05
2022-12-03T19:31:16.800Z,54.57
2022-12-03T19:33:51.962Z,53.03
2022-12-03T19:36:27.742Z,50.99
2022-12-03T19:39:01.113Z,52.25
2022-12-03T19:41:35.728Z,55.95
2022-12-03T19:44:12.265Z,54.91
2022-12-03T19:46:54.746Z,60.31
2022-12-03T20:00:07.412Z,56.34
2022-12-03T20:02:41.189Z,58.14
2022-12-03T20:05:15.569Z,55.44
2022-12-03T20:07:49.042Z,59.68
2022-12-03T20:10:22.706Z,59.05
2022-12-03T20:12:56.022Z,55.88
2022-12-03T20:25:45.748Z,60.59
2022-12-03T20:28:25.724Z,61.86
2022-12-03T20:30:59.146Z,61.69
2022-12-03T20:33:32.734Z,65.02
2022-12-03T20:36:07.825Z,63.71
2022-12-03T20:52:22.718Z,62.87
2022-12-03T20:54:55.952Z,62.68
2022-12-03T20:57:22.658Z,60.97
2022-12-03T21:00:02.729Z,61.41
2022-12-03T21:02:36.792Z,61.12
2022-12-03T21:05:12.776Z,60.72
2022-12-03T21:07:48.863Z,61.97
2022-12-03T21:20:36.672Z,63.42
2022-12-03T21:23:19.758Z,59.68
2022-12-03T21:25:52.961Z,60.50
2022-12-03T21:28:26.759Z,56.99
2022-12-03T21:31:02.201Z,60.01
2022-12-03T21:47:17.786Z,61.60
2022-12-03T21:49:50.968Z,60.83
2022-12-03T21:52:17.669Z,62.71
2022-12-03T21:54:58.680Z,64.83
2022-12-03T21:57:35.497Z,61.23
2022-12-03T22:13:57.704Z,61.93
2022-12-03T22:16:31.076Z,58.14
2022-12-03T22:19:04.696Z,58.85
2022-12-03T22:21:37.886Z,59.43
2022-12-03T22:24:12.689Z,57.73
2022-12-03T22:26:46.077Z,63.29
2022-12-03T22:39:36.652Z,61.00
2022-12-03T22:42:16.700Z,57.61
2022-12-03T22:44:49.957Z,63.12
2022-12-03T22:47:23.701Z,61.50
2022-12-03T22:49:57.276Z,60.12
2022-12-03T22:52:46.698Z,60.53
2022-12-03T23:05:58.665Z,66.31
2022-12-03T23:08:31.850Z,64.91
2022-12-03T23:11:07.372Z,63.36
2022-12-03T23:13:41.336Z,66.52
2022-12-03T23:16:21.721Z,65.20
2022-12-03T23:18:57.377Z,67.04
2022-12-03T23:21:35.721Z,65.90
2022-12-03T23:32:05.642Z,67.99
2022-12-03T23:34:45.735Z,68.14
2022-12-03T23:37:21.112Z,67.92
2022-12-03T23:39:55.937Z,66.25
2022-12-03T23:42:28.949Z,65.25
2022-12-03T23:45:02.681Z,66.70
2022-12-03T23:47:35.857Z,67.56
